Hordafor III — LLVC — position and weather

sailwx.info

Track history (hours):
 
Tides and Currents Weather Stations Pressure Air Temp Water Temp Dewpoint Dewpoint Depression Visibility Wind Speed Wind Dir Waves Ship Positions

Hordafor III

Last reported at 2017-Apr-26 09:30 UTC. Time now 2017-Apr-26 09:57 UTC.
Position N 60°00' E 005°07'.

Length 50 m; draft 6 m.

Type: Cargo ship. MMSI: 258044000.

Date/timePositionNaut miles runAvg speedWind from/ knotsBaromVisibWave heightAir tempDewpointWater temp
2017-Apr-26 09:30N 60°00' E 005°07'0 0.0
2017-Apr-26 09:00N 60°00' E 005°07'0 0.0
2017-Apr-26 08:30N 60°00' E 005°07'0 0.0
2017-Apr-26 08:00N 60°00' E 005°07'0 0.0
2017-Apr-26 07:30N 60°00' E 005°07'0 0.0
2017-Apr-26 07:00N 60°00' E 005°07'0 0.0
2017-Apr-26 06:30N 60°00' E 005°07'0 0.0
2017-Apr-26 06:00N 60°00' E 005°07'0 0.0
2017-Apr-26 05:30N 60°00' E 005°07'0 0.0
2017-Apr-26 05:01N 60°00' E 005°07'0 0.0
2017-Apr-26 04:30N 60°00' E 005°07'0 0.0
2017-Apr-26 04:00N 60°00' E 005°07'0 0.0
2017-Apr-26 03:30N 60°00' E 005°07'0 0.0
2017-Apr-26 03:00N 60°00' E 005°07'2 3.2
2017-Apr-26 02:30N 60°01' E 005°09'510.6
2017-Apr-26 02:00N 60°07' E 005°11'510.7
2017-Apr-26 01:30N 60°12' E 005°11'611.2
2017-Apr-26 01:00N 60°17' E 005°09'510.7
2017-Apr-26 00:31N 60°23' E 005°10'5 9.8
2017-Apr-26 00:00N 60°26' E 005°02'510.5
2017-Apr-25 23:30N 60°31' E 004°58'510.6
2017-Apr-25 23:00N 60°36' E 004°54'510.5
2017-Apr-25 22:30N 60°41' E 004°50'510.4
2017-Apr-25 22:00N 60°46' E 004°47'510.1
2017-Apr-25 21:29N 60°51' E 004°46'510.6
2017-Apr-25 21:00N 60°56' E 004°46'510.2
2017-Apr-25 20:30N 61°01' E 004°50'510.9
2017-Apr-25 20:00N 61°04' E 004°58'510.1
2017-Apr-25 19:30N 61°09' E 005°01'5 9.9
2017-Apr-25 19:00N 61°13' E 004°57'4 8.4
2017-Apr-25 18:29N 61°18' E 004°59'4 8.2
2017-Apr-25 18:01N 61°21' E 005°02'510.3
2017-Apr-25 17:31N 61°26' E 004°58'510.5
2017-Apr-25 17:01N 61°31' E 005°00'5 9.7
2017-Apr-25 16:30N 61°36' E 004°58'510.2
2017-Apr-25 16:00N 61°41' E 004°58'510.2
2017-Apr-25 15:30N 61°46' E 005°02'510.8
2017-Apr-25 15:00N 61°49' E 005°11'7 6.9
2017-Apr-25 14:00N 61°56' E 005°07'1 1.8
2017-Apr-25 13:30N 61°57' E 005°08'0 0.0
2017-Apr-25 13:00N 61°57' E 005°08'0 0.0
2017-Apr-25 12:30N 61°57' E 005°08'3 5.8
2017-Apr-25 12:00N 61°59' E 005°10'5 9.6
2017-Apr-25 11:30N 62°04' E 005°07'5 9.7
2017-Apr-25 11:00N 62°09' E 005°05'5 9.1
2017-Apr-25 10:29N 62°13' E 005°08'510.0
2017-Apr-25 09:59N 62°16' E 005°17'5 9.7
2017-Apr-25 09:30N 62°18' E 005°26'5 9.9
2017-Apr-25 09:01N 62°18' E 005°37'4 7.8
2017-Apr-25 08:30N 62°19' E 005°45'5 9.9
2017-Apr-25 08:00N 62°24' E 005°49'510.0
2017-Apr-25 07:30N 62°27' E 005°58'5 9.7
2017-Apr-25 07:00N 62°29' E 006°07'5 9.7
2017-Apr-25 06:30N 62°34' E 006°12'5 9.8
2017-Apr-25 06:00N 62°37' E 006°19'5 9.9
2017-Apr-25 05:30N 62°41' E 006°26'510.2
2017-Apr-25 05:00N 62°45' E 006°32'510.1
2017-Apr-25 04:30N 62°49' E 006°38'5 9.9
2017-Apr-25 04:00N 62°53' E 006°44'5 9.7
2017-Apr-25 03:30N 62°57' E 006°51'5 9.6
2017-Apr-25 03:00N 62°60' E 006°60'510.0
2017-Apr-25 02:31N 63°02' E 007°10'510.2
2017-Apr-25 02:00N 63°03' E 007°21'3 5.3
2017-Apr-25 01:30N 63°03' E 007°27'0 0.0
2017-Apr-25 01:00N 63°03' E 007°27'0 0.0
2017-Apr-25 00:30N 63°03' E 007°27'0 0.0
2017-Apr-25 00:00N 63°03' E 007°27'0 0.0
2017-Apr-24 23:31N 63°03' E 007°27'0 0.0
2017-Apr-24 23:00N 63°03' E 007°27'0 0.0
2017-Apr-24 22:31N 63°03' E 007°27'0 0.0
2017-Apr-24 22:01N 63°03' E 007°27'0 0.0
2017-Apr-24 21:31N 63°03' E 007°27'0 0.0
2017-Apr-24 21:00N 63°03' E 007°27'0 0.0
2017-Apr-24 20:31N 63°03' E 007°27'1 1.5
2017-Apr-24 20:00N 63°03' E 007°25'3 5.4
2017-Apr-24 19:30N 63°05' E 007°29'5 9.9
2017-Apr-24 19:01N 63°08' E 007°38'5 9.5
2017-Apr-24 18:31N 63°11' E 007°46'5 9.8
2017-Apr-24 18:00N 63°13' E 007°56'510.1
2017-Apr-24 17:30N 63°16' E 008°06'510.1
2017-Apr-24 17:00N 63°19' E 008°15'5 9.2
2017-Apr-24 16:30N 63°23' E 008°17'510.1
2017-Apr-24 16:00N 63°28' E 008°13'5 9.9
2017-Apr-24 15:30N 63°33' E 008°14'5 9.6
2017-Apr-24 15:00N 63°38' E 008°14'5 8.8
2017-Apr-24 14:30N 63°42' E 008°19'7 6.8
2017-Apr-24 13:30N 63°43' E 008°34'0 0.0
2017-Apr-24 13:00N 63°43' E 008°34'0 0.0
2017-Apr-24 12:30N 63°43' E 008°34'0 0.0
2017-Apr-24 12:00N 63°43' E 008°34'0 0.0
2017-Apr-24 11:30N 63°43' E 008°34'0 0.0
2017-Apr-24 11:00N 63°43' E 008°34'0 0.0
2017-Apr-24 10:30N 63°43' E 008°34'0 0.0
2017-Apr-24 10:00N 63°43' E 008°34'0 0.0
2017-Apr-24 09:30N 63°43' E 008°34'0 0.0
2017-Apr-24 09:00N 63°43' E 008°34'0 0.8
2017-Apr-24 08:30N 63°43' E 008°33'4 9.1
2017-Apr-24 08:01N 63°42' E 008°23'5 9.7
2017-Apr-24 07:30N 63°40' E 008°14'5 9.7
2017-Apr-24 07:00N 63°35' E 008°13'5 9.6
2017-Apr-24 06:30N 63°30' E 008°13'5 9.3
2017-Apr-24 06:00N 63°26' E 008°15'510.1
2017-Apr-24 05:30N 63°21' E 008°18'510.9
2017-Apr-24 05:00N 63°17' E 008°09'510.7
2017-Apr-24 04:30N 63°14' E 007°59'510.8
2017-Apr-24 04:00N 63°11' E 007°49'611.2
2017-Apr-24 03:31N 63°08' E 007°39'510.9
2017-Apr-24 03:00N 63°05' E 007°29'510.5
2017-Apr-24 02:31N 63°03' E 007°18'510.5
2017-Apr-24 02:00N 63°01' E 007°07'510.5
2017-Apr-24 01:30N 62°59' E 006°56'510.1
2017-Apr-24 01:00N 62°56' E 006°48'510.5
2017-Apr-24 00:30N 62°52' E 006°42'510.5
2017-Apr-24 00:00N 62°47' E 006°36'510.4
2017-Apr-23 23:31N 62°43' E 006°29'510.6
2017-Apr-23 23:00N 62°38' E 006°23'5 9.9
2017-Apr-23 22:31N 62°35' E 006°15'3 6.0
2017-Apr-23 22:00N 62°33' E 006°10'2 3.5
2017-Apr-23 21:30N 62°32' E 006°08'0 0.0
2017-Apr-23 21:00N 62°32' E 006°08'0 0.0
2017-Apr-23 20:30N 62°32' E 006°08'0 0.0
2017-Apr-23 20:00N 62°32' E 006°08'1 2.3
2017-Apr-23 19:30N 62°31' E 006°09'510.0
2017-Apr-23 18:59N 62°27' E 006°00'510.3
2017-Apr-23 18:30N 62°25' E 005°51'510.6
2017-Apr-23 18:00N 62°20' E 005°44'4 9.0
2017-Apr-23 17:30N 62°19' E 005°35'510.7
2017-Apr-23 17:01N 62°17' E 005°25'510.4
2017-Apr-23 16:30N 62°15' E 005°15'510.7
2017-Apr-23 16:00N 62°12' E 005°05'510.3
2017-Apr-23 15:31N 62°07' E 005°05'510.4
2017-Apr-23 15:00N 62°02' E 005°09'9 9.4
2017-Apr-23 14:01N 61°53' E 005°12'3 6.3
2017-Apr-23 13:30N 61°51' E 005°18'0 0.0
2017-Apr-23 13:00N 61°51' E 005°18'1 1.2
2017-Apr-23 12:30N 61°51' E 005°17'510.1
2017-Apr-23 12:00N 61°48' E 005°08'510.7
2017-Apr-23 11:30N 61°45' E 004°59'510.3
2017-Apr-23 11:00N 61°39' E 004°58'510.0
2017-Apr-23 10:30N 61°35' E 004°57'5 9.8
2017-Apr-23 10:00N 61°30' E 004°59'510.4
2017-Apr-23 09:30N 61°24' E 004°58'510.2
2017-Apr-23 09:00N 61°20' E 005°03'4 8.7
2017-Apr-23 08:30N 61°17' E 004°56'4 8.9
2017-Apr-23 08:00N 61°13' E 004°59'5 9.8
2017-Apr-23 07:29N 61°08' E 005°02'5 9.9
2017-Apr-23 07:00N 61°03' E 004°57'510.3
2017-Apr-23 06:30N 61°00' E 004°49'5 9.6
2017-Apr-23 06:00N 60°56' E 004°46'510.0
2017-Apr-23 05:30N 60°51' E 004°46'4 8.6
2017-Apr-23 05:00N 60°47' E 004°46'5 9.9
2017-Apr-23 04:30N 60°42' E 004°50'510.0
2017-Apr-23 04:00N 60°37' E 004°53'510.0
2017-Apr-23 03:31N 60°32' E 004°57'510.4
2017-Apr-23 03:00N 60°28' E 005°01'510.1
2017-Apr-23 02:30N 60°24' E 005°08'5 9.5
2017-Apr-23 02:00N 60°19' E 005°09'510.4
2017-Apr-23 01:30N 60°14' E 005°10'510.3
2017-Apr-23 01:00N 60°09' E 005°11'510.2
2017-Apr-23 00:30N 60°04' E 005°10'4 8.1
2017-Apr-23 00:00N 60°00' E 005°07'0 0.0
2017-Apr-22 23:30N 60°00' E 005°07'0 0.0
2017-Apr-22 23:00N 60°00' E 005°07'0 0.0
2017-Apr-22 22:30N 60°00' E 005°07'0 0.0
2017-Apr-22 22:00N 60°00' E 005°07'0 0.0
2017-Apr-22 21:30N 60°00' E 005°07'0 0.0
2017-Apr-22 21:00N 60°00' E 005°07'0 0.0
2017-Apr-22 20:30N 60°00' E 005°07'0 0.0
2017-Apr-22 20:00N 60°00' E 005°07'2 4.7
2017-Apr-22 19:30N 60°02' E 005°10'611.1
2017-Apr-22 19:00N 60°08' E 005°11'511.1
2017-Apr-22 18:30N 60°13' E 005°10'611.1
2017-Apr-22 18:00N 60°19' E 005°08'510.2
2017-Apr-22 17:30N 60°23' E 005°12'5 9.3
2017-Apr-22 17:00N 60°28' E 005°15'4 8.8
2017-Apr-22 16:30N 60°32' E 005°19'1 2.1
2017-Apr-22 16:01N 60°31' E 005°21'0 0.0
2017-Apr-22 15:30N 60°31' E 005°21'0 0.0
2017-Apr-22 15:00N 60°31' E 005°21'1 1.5
2017-Apr-22 14:30N 60°31' E 005°23'6 5.8
2017-Apr-22 13:30N 60°34' E 005°13'510.1
2017-Apr-22 13:00N 60°37' E 005°04'510.1
2017-Apr-22 12:30N 60°39' E 004°55'510.2
2017-Apr-22 12:00N 60°43' E 004°49'510.2
2017-Apr-22 11:30N 60°48' E 004°45'4 7.2
2017-Apr-22 11:00N 60°51' E 004°50'3 6.5
2017-Apr-22 10:30N 60°52' E 004°56'0 0.0
2017-Apr-22 10:00N 60°52' E 004°56'3 5.9
2017-Apr-22 09:30N 60°52' E 004°50'1 2.5
2017-Apr-22 09:00N 60°54' E 004°50'0 0.0
2017-Apr-22 08:30N 60°54' E 004°50'0 0.0
2017-Apr-22 08:00N 60°54' E 004°50'0 0.0
2017-Apr-22 07:30N 60°54' E 004°50'3 5.6
2017-Apr-22 07:00N 60°51' E 004°48'4 7.4
2017-Apr-22 06:31N 60°48' E 004°46'5 9.3
2017-Apr-22 06:00N 60°43' E 004°49'5 9.4
2017-Apr-22 05:30N 60°39' E 004°52'5 9.2
2017-Apr-22 05:00N 60°34' E 004°55'5 9.3
2017-Apr-22 04:30N 60°30' E 004°59'5 9.1
2017-Apr-22 04:00N 60°26' E 005°03'5 9.2
2017-Apr-22 03:30N 60°23' E 005°10'5 9.3
2017-Apr-22 03:00N 60°18' E 005°08'5 9.5
2017-Apr-22 02:30N 60°14' E 005°10'5 9.2
2017-Apr-22 02:00N 60°09' E 005°11'5 9.6
2017-Apr-22 01:30N 60°04' E 005°10'5 8.9
2017-Apr-22 01:00N 59°60' E 005°13'4 9.1
2017-Apr-22 00:31N 59°56' E 005°10'3 5.6
2017-Apr-22 00:00N 59°54' E 005°06'0 0.1
2017-Apr-21 23:30N 59°54' E 005°06'0 0.0
2017-Apr-21 23:00N 59°54' E 005°06'0 0.0
2017-Apr-21 22:30N 59°54' E 005°06'0 0.0
2017-Apr-21 22:00N 59°54' E 005°06'0 0.0
2017-Apr-21 21:30N 59°54' E 005°06'0 0.0
2017-Apr-21 21:00N 59°54' E 005°06'0 0.0
2017-Apr-21 20:30N 59°54' E 005°06'0 0.0
2017-Apr-21 20:00N 59°54' E 005°06'0 0.2
2017-Apr-21 19:30N 59°54' E 005°06'2 3.0
2017-Apr-21 19:00N 59°55' E 005°08'3 5.8
2017-Apr-21 18:30N 59°53' E 005°13'4 8.7
2017-Apr-21 18:00N 59°50' E 005°18'4 8.6
2017-Apr-21 17:30N 59°46' E 005°21'4 8.6
2017-Apr-21 17:00N 59°42' E 005°24'5 9.8
2017-Apr-21 16:30N 59°38' E 005°18'5 9.4
2017-Apr-21 16:00N 59°33' E 005°14'4 8.8
2017-Apr-21 15:30N 59°29' E 005°13'4 7.9
2017-Apr-21 15:00N 59°25' E 005°14'4 8.7
2017-Apr-21 14:31N 59°22' E 005°18'8 7.8
2017-Apr-21 13:30N 59°15' E 005°26'5 9.1
2017-Apr-21 13:00N 59°11' E 005°32'4 8.8
2017-Apr-21 12:31N 59°09' E 005°39'5 9.0
2017-Apr-21 12:00N 59°08' E 005°48'2 3.5
2017-Apr-21 11:30N 59°07' E 005°51'3 6.8
2017-Apr-21 11:00N 59°04' E 005°51'5 9.7
2017-Apr-21 10:30N 58°59' E 005°48'3 5.5
2017-Apr-21 10:00N 58°57' E 005°45'0 0.0
2017-Apr-21 09:30N 58°57' E 005°45'0 0.0
2017-Apr-21 09:00N 58°57' E 005°45'0 0.0
2017-Apr-21 08:30N 58°57' E 005°45'0 0.0
2017-Apr-21 08:00N 58°57' E 005°45'0 0.0
2017-Apr-21 07:30N 58°57' E 005°45'0 0.0
2017-Apr-21 07:00N 58°57' E 005°45'0 0.0
2017-Apr-21 06:30N 58°57' E 005°45'0 0.0
2017-Apr-21 06:00N 58°57' E 005°45'0 0.0
2017-Apr-21 05:31N 58°57' E 005°45'4 7.5
2017-Apr-21 05:01N 59°00' E 005°48'4 7.9
2017-Apr-21 04:31N 59°04' E 005°45'510.4
2017-Apr-21 04:00N 59°07' E 005°36'5 9.2
2017-Apr-21 03:30N 59°10' E 005°31'510.1
2017-Apr-21 03:00N 59°15' E 005°26'4 7.9
2017-Apr-21 02:30N 59°17' E 005°20'5 9.5
2017-Apr-21 01:59N 59°22' E 005°18'4 8.9
2017-Apr-21 01:30N 59°26' E 005°14'5 9.4
2017-Apr-21 01:00N 59°31' E 005°13'5 9.4
2017-Apr-21 00:30N 59°35' E 005°16'5 9.6
2017-Apr-21 00:00N 59°39' E 005°21'4 8.6
2017-Apr-20 23:30N 59°43' E 005°23'510.4
2017-Apr-20 23:00N 59°48' E 005°19'510.1
2017-Apr-20 22:30N 59°52' E 005°14'5 9.9
2017-Apr-20 22:00N 59°57' E 005°09'4 8.0
2017-Apr-20 21:30N 60°01' E 005°07'1 1.1
2017-Apr-20 21:01N 60°00' E 005°07'0 0.0
2017-Apr-20 20:30N 60°00' E 005°07'0 0.0
2017-Apr-20 20:00N 60°00' E 005°07'0 0.0
2017-Apr-20 19:30N 60°00' E 005°07'0 0.0
2017-Apr-20 19:00N 60°00' E 005°07'0 0.0
2017-Apr-20 18:30N 60°00' E 005°07'0 0.0
2017-Apr-20 18:00N 60°00' E 005°07'0 0.0
2017-Apr-20 17:30N 60°00' E 005°07'0 0.0
2017-Apr-20 17:00N 60°00' E 005°07'0 0.0
2017-Apr-20 16:30N 60°00' E 005°07'0 0.0
2017-Apr-20 16:00N 60°00' E 005°07'0 0.0
2017-Apr-20 15:30N 60°00' E 005°07'0 0.0
2017-Apr-20 15:00N 60°00' E 005°07'0 0.0
2017-Apr-20 14:30N 60°00' E 005°07'0 0.0
2017-Apr-20 13:31N 60°00' E 005°07'0 0.0
2017-Apr-20 13:00N 60°00' E 005°07'0 0.0
2017-Apr-20 12:30N 60°00' E 005°07'0 0.0
2017-Apr-20 12:00N 60°00' E 005°07'0 0.0
2017-Apr-20 11:30N 60°00' E 005°07'0 0.0
2017-Apr-20 11:00N 60°00' E 005°07'0 0.0
2017-Apr-20 10:29N 60°00' E 005°07'0 0.0
2017-Apr-20 10:00N 60°00' E 005°07'0 0.0
2017-Apr-20 09:30N 60°00' E 005°07'0 0.0
2017-Apr-20 09:00N 60°00' E 005°07'0 0.0
2017-Apr-20 08:30N 60°00' E 005°07'0 0.0
2017-Apr-20 08:00N 60°00' E 005°07'0 0.0
2017-Apr-20 07:30N 60°00' E 005°07'0 0.0
2017-Apr-20 07:00N 60°00' E 005°07'0 0.0
2017-Apr-20 06:30N 60°00' E 005°07'0 0.0
2017-Apr-20 06:00N 60°00' E 005°07'0 0.1
2017-Apr-20 05:30N 60°00' E 005°07'3 5.0
2017-Apr-20 05:00N 59°58' E 005°05'1 1.7
2017-Apr-20 04:30N 59°57' E 005°06'1 2.0
2017-Apr-20 04:00N 59°57' E 005°07'1 1.7
2017-Apr-20 03:30N 59°57' E 005°09'1 1.1
2017-Apr-20 03:00N 59°58' E 005°10'0 0.9
2017-Apr-20 02:30N 59°57' E 005°11'1 2.8
2017-Apr-20 02:00N 59°57' E 005°08'1 1.7
2017-Apr-20 01:30N 59°57' E 005°07'2 4.5
2017-Apr-20 01:00N 59°59' E 005°06'1 2.0
2017-Apr-20 00:30N 60°00' E 005°07'0 0.0
2017-Apr-20 00:00N 60°00' E 005°07'0 0.0
2017-Apr-19 23:29N 60°00' E 005°07'0 0.0
2017-Apr-19 23:00N 60°00' E 005°07'0 0.0
2017-Apr-19 22:30N 60°00' E 005°07'0 0.0
2017-Apr-19 22:00N 60°00' E 005°07'0 0.0
2017-Apr-19 21:30N 60°00' E 005°07'0 0.0
2017-Apr-19 21:00N 60°00' E 005°07'0 0.0
2017-Apr-19 20:30N 60°00' E 005°07'0 0.0
2017-Apr-19 20:00N 60°00' E 005°07'0 0.0
2017-Apr-19 19:30N 60°00' E 005°07'0 0.0
2017-Apr-19 19:00N 60°00' E 005°07'0 0.0
2017-Apr-19 18:30N 60°00' E 005°07'0 0.0
2017-Apr-19 18:00N 60°00' E 005°07'0 0.0
2017-Apr-19 17:30N 60°00' E 005°07'1 1.0
2017-Apr-19 17:00N 60°01' E 005°08'5 9.2
2017-Apr-19 16:30N 60°05' E 005°11'1 2.7
2017-Apr-19 16:00N 60°06' E 005°13'0 0.0
2017-Apr-19 15:31N 60°06' E 005°13'0 0.0
2017-Apr-19 15:00N 60°06' E 005°13'1 2.7
2017-Apr-19 14:30N 60°06' E 005°11'9 8.4
2017-Apr-19 13:30N 60°08' E 005°28'510.0
2017-Apr-19 13:00N 60°08' E 005°37'4 7.1
2017-Apr-19 12:29N 60°11' E 005°43'0 0.0
2017-Apr-19 12:00N 60°11' E 005°43'1 1.9
2017-Apr-19 11:28N 60°10' E 005°42'1 1.8
2017-Apr-19 11:00N 60°10' E 005°43'0 0.7
2017-Apr-19 10:30N 60°09' E 005°42'510.6
2017-Apr-19 10:00N 60°07' E 005°32'510.5
2017-Apr-19 09:30N 60°06' E 005°22'510.7
2017-Apr-19 09:00N 60°01' E 005°20'5 9.7
2017-Apr-19 08:30N 59°57' E 005°27'0 0.4
2017-Apr-19 08:00N 59°57' E 005°27'0 0.0
2017-Apr-19 07:30N 59°57' E 005°27'1 1.9
2017-Apr-19 07:00N 59°58' E 005°25'5 9.1
2017-Apr-19 06:30N 59°59' E 005°17'4 8.8
2017-Apr-19 06:00N 60°01' E 005°09'2 4.5
2017-Apr-19 05:30N 60°01' E 005°05'1 1.3
2017-Apr-19 05:00N 60°01' E 005°06'1 2.1
2017-Apr-19 04:30N 60°00' E 005°07'0 0.0
2017-Apr-19 04:00N 60°00' E 005°07'0 0.0
2017-Apr-19 03:30N 60°00' E 005°07'0 0.0
2017-Apr-19 03:00N 60°00' E 005°07'0 0.0
2017-Apr-19 02:30N 60°00' E 005°07'0 0.0
2017-Apr-19 02:00N 60°00' E 005°07'0 0.0
2017-Apr-19 01:30N 60°00' E 005°07'0 0.0
2017-Apr-19 01:00N 60°00' E 005°07'0 0.0
2017-Apr-19 00:30N 60°00' E 005°07'0 0.0
2017-Apr-19 00:00N 60°00' E 005°07'0 0.0
2017-Apr-18 23:30N 60°00' E 005°07'0 0.0
2017-Apr-18 23:00N 60°00' E 005°07'0 0.0
2017-Apr-18 22:30N 60°00' E 005°07'0 0.0
2017-Apr-18 22:00N 60°00' E 005°07'0 0.0
2017-Apr-18 21:30N 60°00' E 005°07'0 0.0
2017-Apr-18 21:00N 60°00' E 005°07'0 0.0
2017-Apr-18 20:30N 60°00' E 005°07'0 0.0
2017-Apr-18 20:00N 60°00' E 005°07'0 0.0
2017-Apr-18 19:30N 60°00' E 005°07'0 0.0
2017-Apr-18 19:00N 60°00' E 005°07'0 0.0
2017-Apr-18 18:30N 60°00' E 005°07'0 0.0
2017-Apr-18 18:00N 60°00' E 005°07'0 0.0
2017-Apr-18 17:30N 60°00' E 005°07'0 0.0
2017-Apr-18 17:00N 60°00' E 005°07'0 0.0
2017-Apr-18 16:30N 60°00' E 005°07'0 0.0
2017-Apr-18 16:00N 60°00' E 005°07'0 0.0
2017-Apr-18 15:29N 60°00' E 005°07'0 0.0
2017-Apr-18 15:00N 60°00' E 005°07'0 0.0
2017-Apr-18 14:00N 60°00' E 005°07'0 0.0
2017-Apr-18 13:30N 60°00' E 005°07'0 0.0
2017-Apr-18 13:00N 60°00' E 005°07'0 0.0
2017-Apr-18 12:30N 60°00' E 005°07'0 0.0
2017-Apr-18 12:00N 60°00' E 005°07'0 0.0
2017-Apr-18 11:30N 60°00' E 005°07'0 0.0
2017-Apr-18 11:00N 60°00' E 005°07'0 0.0
2017-Apr-18 10:30N 60°00' E 005°07'0 0.0
2017-Apr-18 10:00N 60°00' E 005°07'0 0.0
2017-Apr-18 09:30N 60°00' E 005°07'0 0.0
2017-Apr-18 09:00N 60°00' E 005°07'0 0.0
2017-Apr-18 08:30N 60°00' E 005°07'0 0.0
2017-Apr-18 08:00N 60°00' E 005°07'0 0.0
2017-Apr-18 07:30N 60°00' E 005°07'0 0.0
2017-Apr-18 06:59N 60°00' E 005°07'0 0.0
2017-Apr-18 06:30N 60°00' E 005°07'0 0.0
2017-Apr-18 06:00N 60°00' E 005°07'0 0.0
2017-Apr-18 05:30N 60°00' E 005°07'0 0.0
2017-Apr-18 05:00N 60°00' E 005°07'0 0.0
2017-Apr-18 04:30N 60°00' E 005°07'0 0.0
2017-Apr-18 04:00N 60°00' E 005°07'0 0.0
2017-Apr-18 03:29N 60°00' E 005°07'0 0.0
2017-Apr-18 03:00N 60°00' E 005°07'0 0.0
2017-Apr-18 02:30N 60°00' E 005°07'0 0.0
2017-Apr-18 02:00N 60°00' E 005°07'0 0.0
2017-Apr-18 01:30N 60°00' E 005°07'0 0.0
2017-Apr-18 01:00N 60°00' E 005°07'0 0.0
2017-Apr-18 00:30N 60°00' E 005°07'0 0.0
2017-Apr-18 00:00N 60°00' E 005°07'0 0.0
2017-Apr-17 23:30N 60°00' E 005°07'0 0.0
2017-Apr-17 23:00N 60°00' E 005°07'0 0.0
2017-Apr-17 22:30N 60°00' E 005°07'0 0.0
2017-Apr-17 22:00N 60°00' E 005°07'0 0.0
2017-Apr-17 21:30N 60°00' E 005°07'0 0.0
2017-Apr-17 21:00N 60°00' E 005°07'0 0.0
2017-Apr-17 20:30N 60°00' E 005°07'0 0.0
2017-Apr-17 20:00N 60°00' E 005°07'0 0.0
2017-Apr-17 19:30N 60°00' E 005°07'0 0.0
2017-Apr-17 19:00N 60°00' E 005°07'0 0.0
2017-Apr-17 18:30N 60°00' E 005°07'0 0.0
2017-Apr-17 18:00N 60°00' E 005°07'0 0.0
2017-Apr-17 17:30N 60°00' E 005°07'3 5.9
2017-Apr-17 17:00N 60°00' E 005°13'5 9.8
2017-Apr-17 16:30N 59°59' E 005°22'510.5
2017-Apr-17 16:00N 59°55' E 005°30'510.0
2017-Apr-17 15:30N 59°52' E 005°37'510.8
2017-Apr-17 15:00N 59°55' E 005°45'3 2.8
2017-Apr-17 13:59N 59°57' E 005°50'0 0.0
2017-Apr-17 13:31N 59°57' E 005°50'3 5.1
2017-Apr-17 13:01N 59°59' E 005°54'510.0
2017-Apr-17 12:30N 60°02' E 006°01'0 0.7
2017-Apr-17 12:00N 60°03' E 006°01'4 8.7
2017-Apr-17 11:30N 60°06' E 006°06'3 6.0
2017-Apr-17 11:00N 60°06' E 006°12'1 2.0
2017-Apr-17 10:29N 60°06' E 006°10'510.1
2017-Apr-17 10:00N 60°04' E 006°02'510.4
2017-Apr-17 09:30N 60°00' E 005°54'5 9.8
2017-Apr-17 09:01N 59°58' E 005°46'5 9.1
2017-Apr-17 08:31N 60°03' E 005°42'4 8.2
2017-Apr-17 08:00N 60°06' E 005°37'510.3
2017-Apr-17 07:30N 60°06' E 005°26'5 9.4
2017-Apr-17 07:00N 60°08' E 005°18'510.0
2017-Apr-17 06:30N 60°12' E 005°12'510.1
2017-Apr-17 06:00N 60°17' E 005°09'510.2
2017-Apr-17 05:30N 60°22' E 005°10'5 9.9
2017-Apr-17 05:00N 60°26' E 005°03'611.0
2017-Apr-17 04:30N 60°31' E 004°58'510.9
2017-Apr-17 04:00N 60°36' E 004°54'510.5
2017-Apr-17 03:30N 60°41' E 004°51'510.5
2017-Apr-17 02:59N 60°46' E 004°47'5 9.6
2017-Apr-17 02:30N 60°50' E 004°46'3 6.7
2017-Apr-17 02:00N 60°53' E 004°50'1 1.1
2017-Apr-17 01:30N 60°54' E 004°50'0 0.0
2017-Apr-17 01:00N 60°54' E 004°50'0 0.0
2017-Apr-17 00:30N 60°54' E 004°50'0 0.0
2017-Apr-17 00:00N 60°54' E 004°50'0 0.0
2017-Apr-16 23:30N 60°54' E 004°50'2 4.0
2017-Apr-16 23:00N 60°52' E 004°51'4 8.7
2017-Apr-16 22:30N 60°49' E 004°44'5 9.6
2017-Apr-16 22:00N 60°44' E 004°48'5 9.7
2017-Apr-16 21:30N 60°40' E 004°52'5 9.6
2017-Apr-16 20:59N 60°37' E 005°01'5 9.9
2017-Apr-16 20:30N 60°35' E 005°10'510.1
2017-Apr-16 20:00N 60°32' E 005°18'4 8.7
2017-Apr-16 19:30N 60°30' E 005°26'0 0.0
2017-Apr-16 19:00N 60°30' E 005°26'0 0.0
2017-Apr-16 18:30N 60°30' E 005°26'0 0.0
2017-Apr-16 17:59N 60°30' E 005°26'0 0.0
2017-Apr-16 17:30N 60°30' E 005°26'0 0.0
2017-Apr-16 16:59N 60°30' E 005°26'3 6.7
2017-Apr-16 16:30N 60°31' E 005°20'4 8.0
2017-Apr-16 16:00N 60°28' E 005°15'4 8.7
2017-Apr-16 15:30N 60°24' E 005°13'4 8.7
2017-Apr-16 15:00N 60°20' E 005°10'5 9.8
2017-Apr-16 14:29N 60°15' E 005°09'9 9.6
2017-Apr-16 13:30N 60°07' E 005°18'510.2
2017-Apr-16 13:00N 60°02' E 005°20'510.2
2017-Apr-16 12:30N 59°57' E 005°25'1 1.3
2017-Apr-16 12:00N 59°57' E 005°26'4 7.8
2017-Apr-16 11:30N 59°59' E 005°20'5 9.3
2017-Apr-16 11:00N 60°01' E 005°12'3 5.2
2017-Apr-16 10:30N 60°00' E 005°07'0 0.0
2017-Apr-16 10:00N 60°00' E 005°07'0 0.0
2017-Apr-16 09:30N 60°00' E 005°07'  
Track history (hours):
 
Tides and Currents Weather Stations Pressure Air Temp Water Temp Dewpoint Dewpoint Depression Visibility Wind Speed Wind Dir Waves Ship Positions

Hordafor III

Last reported at 2017-Apr-26 09:30 UTC. Time now 2017-Apr-26 09:57 UTC.
Position N 60°00' E 005°07'.

Length 50 m; draft 6 m.

Type: Cargo ship. MMSI: 258044000.

Date/timePositionNaut miles runAvg speedWind from/ knotsBaromVisibWave heightAir tempDewpointWater temp
2017-Apr-26 09:30N 60°00' E 005°07'0 0.0
2017-Apr-26 09:00N 60°00' E 005°07'0 0.0
2017-Apr-26 08:30N 60°00' E 005°07'0 0.0
2017-Apr-26 08:00N 60°00' E 005°07'0 0.0
2017-Apr-26 07:30N 60°00' E 005°07'0 0.0
2017-Apr-26 07:00N 60°00' E 005°07'0 0.0
2017-Apr-26 06:30N 60°00' E 005°07'0 0.0
2017-Apr-26 06:00N 60°00' E 005°07'0 0.0
2017-Apr-26 05:30N 60°00' E 005°07'0 0.0
2017-Apr-26 05:01N 60°00' E 005°07'0 0.0
2017-Apr-26 04:30N 60°00' E 005°07'0 0.0
2017-Apr-26 04:00N 60°00' E 005°07'0 0.0
2017-Apr-26 03:30N 60°00' E 005°07'0 0.0
2017-Apr-26 03:00N 60°00' E 005°07'2 3.2
2017-Apr-26 02:30N 60°01' E 005°09'510.6
2017-Apr-26 02:00N 60°07' E 005°11'510.7
2017-Apr-26 01:30N 60°12' E 005°11'611.2
2017-Apr-26 01:00N 60°17' E 005°09'510.7
2017-Apr-26 00:31N 60°23' E 005°10'5 9.8
2017-Apr-26 00:00N 60°26' E 005°02'510.5
2017-Apr-25 23:30N 60°31' E 004°58'510.6
2017-Apr-25 23:00N 60°36' E 004°54'510.5
2017-Apr-25 22:30N 60°41' E 004°50'510.4
2017-Apr-25 22:00N 60°46' E 004°47'510.1
2017-Apr-25 21:29N 60°51' E 004°46'510.6
2017-Apr-25 21:00N 60°56' E 004°46'510.2
2017-Apr-25 20:30N 61°01' E 004°50'510.9
2017-Apr-25 20:00N 61°04' E 004°58'510.1
2017-Apr-25 19:30N 61°09' E 005°01'5 9.9
2017-Apr-25 19:00N 61°13' E 004°57'4 8.4
2017-Apr-25 18:29N 61°18' E 004°59'4 8.2
2017-Apr-25 18:01N 61°21' E 005°02'510.3
2017-Apr-25 17:31N 61°26' E 004°58'510.5
2017-Apr-25 17:01N 61°31' E 005°00'5 9.7
2017-Apr-25 16:30N 61°36' E 004°58'510.2
2017-Apr-25 16:00N 61°41' E 004°58'510.2
2017-Apr-25 15:30N 61°46' E 005°02'510.8
2017-Apr-25 15:00N 61°49' E 005°11'7 6.9
2017-Apr-25 14:00N 61°56' E 005°07'1 1.8
2017-Apr-25 13:30N 61°57' E 005°08'0 0.0
2017-Apr-25 13:00N 61°57' E 005°08'0 0.0
2017-Apr-25 12:30N 61°57' E 005°08'3 5.8
2017-Apr-25 12:00N 61°59' E 005°10'5 9.6
2017-Apr-25 11:30N 62°04' E 005°07'5 9.7
2017-Apr-25 11:00N 62°09' E 005°05'5 9.1
2017-Apr-25 10:29N 62°13' E 005°08'510.0
2017-Apr-25 09:59N 62°16' E 005°17'5 9.7
2017-Apr-25 09:30N 62°18' E 005°26'5 9.9
2017-Apr-25 09:01N 62°18' E 005°37'4 7.8
2017-Apr-25 08:30N 62°19' E 005°45'5 9.9
2017-Apr-25 08:00N 62°24' E 005°49'510.0
2017-Apr-25 07:30N 62°27' E 005°58'5 9.7
2017-Apr-25 07:00N 62°29' E 006°07'5 9.7
2017-Apr-25 06:30N 62°34' E 006°12'5 9.8
2017-Apr-25 06:00N 62°37' E 006°19'5 9.9
2017-Apr-25 05:30N 62°41' E 006°26'510.2
2017-Apr-25 05:00N 62°45' E 006°32'510.1
2017-Apr-25 04:30N 62°49' E 006°38'5 9.9
2017-Apr-25 04:00N 62°53' E 006°44'5 9.7
2017-Apr-25 03:30N 62°57' E 006°51'5 9.6
2017-Apr-25 03:00N 62°60' E 006°60'510.0
2017-Apr-25 02:31N 63°02' E 007°10'510.2
2017-Apr-25 02:00N 63°03' E 007°21'3 5.3
2017-Apr-25 01:30N 63°03' E 007°27'0 0.0
2017-Apr-25 01:00N 63°03' E 007°27'0 0.0
2017-Apr-25 00:30N 63°03' E 007°27'0 0.0
2017-Apr-25 00:00N 63°03' E 007°27'0 0.0
2017-Apr-24 23:31N 63°03' E 007°27'0 0.0
2017-Apr-24 23:00N 63°03' E 007°27'0 0.0
2017-Apr-24 22:31N 63°03' E 007°27'0 0.0
2017-Apr-24 22:01N 63°03' E 007°27'0 0.0
2017-Apr-24 21:31N 63°03' E 007°27'0 0.0
2017-Apr-24 21:00N 63°03' E 007°27'0 0.0
2017-Apr-24 20:31N 63°03' E 007°27'1 1.5
2017-Apr-24 20:00N 63°03' E 007°25'3 5.4
2017-Apr-24 19:30N 63°05' E 007°29'5 9.9
2017-Apr-24 19:01N 63°08' E 007°38'5 9.5
2017-Apr-24 18:31N 63°11' E 007°46'5 9.8
2017-Apr-24 18:00N 63°13' E 007°56'510.1
2017-Apr-24 17:30N 63°16' E 008°06'510.1
2017-Apr-24 17:00N 63°19' E 008°15'5 9.2
2017-Apr-24 16:30N 63°23' E 008°17'510.1
2017-Apr-24 16:00N 63°28' E 008°13'5 9.9
2017-Apr-24 15:30N 63°33' E 008°14'5 9.6
2017-Apr-24 15:00N 63°38' E 008°14'5 8.8
2017-Apr-24 14:30N 63°42' E 008°19'7 6.8
2017-Apr-24 13:30N 63°43' E 008°34'0 0.0
2017-Apr-24 13:00N 63°43' E 008°34'0 0.0
2017-Apr-24 12:30N 63°43' E 008°34'0 0.0
2017-Apr-24 12:00N 63°43' E 008°34'0 0.0
2017-Apr-24 11:30N 63°43' E 008°34'0 0.0
2017-Apr-24 11:00N 63°43' E 008°34'0 0.0
2017-Apr-24 10:30N 63°43' E 008°34'0 0.0
2017-Apr-24 10:00N 63°43' E 008°34'0 0.0
2017-Apr-24 09:30N 63°43' E 008°34'0 0.0
2017-Apr-24 09:00N 63°43' E 008°34'0 0.8
2017-Apr-24 08:30N 63°43' E 008°33'4 9.1
2017-Apr-24 08:01N 63°42' E 008°23'5 9.7
2017-Apr-24 07:30N 63°40' E 008°14'5 9.7
2017-Apr-24 07:00N 63°35' E 008°13'5 9.6
2017-Apr-24 06:30N 63°30' E 008°13'5 9.3
2017-Apr-24 06:00N 63°26' E 008°15'510.1
2017-Apr-24 05:30N 63°21' E 008°18'510.9
2017-Apr-24 05:00N 63°17' E 008°09'510.7
2017-Apr-24 04:30N 63°14' E 007°59'510.8
2017-Apr-24 04:00N 63°11' E 007°49'611.2
2017-Apr-24 03:31N 63°08' E 007°39'510.9
2017-Apr-24 03:00N 63°05' E 007°29'510.5
2017-Apr-24 02:31N 63°03' E 007°18'510.5
2017-Apr-24 02:00N 63°01' E 007°07'510.5
2017-Apr-24 01:30N 62°59' E 006°56'510.1
2017-Apr-24 01:00N 62°56' E 006°48'510.5
2017-Apr-24 00:30N 62°52' E 006°42'510.5
2017-Apr-24 00:00N 62°47' E 006°36'510.4
2017-Apr-23 23:31N 62°43' E 006°29'510.6
2017-Apr-23 23:00N 62°38' E 006°23'5 9.9
2017-Apr-23 22:31N 62°35' E 006°15'3 6.0
2017-Apr-23 22:00N 62°33' E 006°10'2 3.5
2017-Apr-23 21:30N 62°32' E 006°08'0 0.0
2017-Apr-23 21:00N 62°32' E 006°08'0 0.0
2017-Apr-23 20:30N 62°32' E 006°08'0 0.0
2017-Apr-23 20:00N 62°32' E 006°08'1 2.3
2017-Apr-23 19:30N 62°31' E 006°09'510.0
2017-Apr-23 18:59N 62°27' E 006°00'510.3
2017-Apr-23 18:30N 62°25' E 005°51'510.6
2017-Apr-23 18:00N 62°20' E 005°44'4 9.0
2017-Apr-23 17:30N 62°19' E 005°35'510.7
2017-Apr-23 17:01N 62°17' E 005°25'510.4
2017-Apr-23 16:30N 62°15' E 005°15'510.7
2017-Apr-23 16:00N 62°12' E 005°05'510.3
2017-Apr-23 15:31N 62°07' E 005°05'510.4
2017-Apr-23 15:00N 62°02' E 005°09'9 9.4
2017-Apr-23 14:01N 61°53' E 005°12'3 6.3
2017-Apr-23 13:30N 61°51' E 005°18'0 0.0
2017-Apr-23 13:00N 61°51' E 005°18'1 1.2
2017-Apr-23 12:30N 61°51' E 005°17'510.1
2017-Apr-23 12:00N 61°48' E 005°08'510.7
2017-Apr-23 11:30N 61°45' E 004°59'510.3
2017-Apr-23 11:00N 61°39' E 004°58'510.0
2017-Apr-23 10:30N 61°35' E 004°57'5 9.8
2017-Apr-23 10:00N 61°30' E 004°59'510.4
2017-Apr-23 09:30N 61°24' E 004°58'510.2
2017-Apr-23 09:00N 61°20' E 005°03'4 8.7
2017-Apr-23 08:30N 61°17' E 004°56'4 8.9
2017-Apr-23 08:00N 61°13' E 004°59'5 9.8
2017-Apr-23 07:29N 61°08' E 005°02'5 9.9
2017-Apr-23 07:00N 61°03' E 004°57'510.3
2017-Apr-23 06:30N 61°00' E 004°49'5 9.6
2017-Apr-23 06:00N 60°56' E 004°46'510.0
2017-Apr-23 05:30N 60°51' E 004°46'4 8.6
2017-Apr-23 05:00N 60°47' E 004°46'5 9.9
2017-Apr-23 04:30N 60°42' E 004°50'510.0
2017-Apr-23 04:00N 60°37' E 004°53'510.0
2017-Apr-23 03:31N 60°32' E 004°57'510.4
2017-Apr-23 03:00N 60°28' E 005°01'510.1
2017-Apr-23 02:30N 60°24' E 005°08'5 9.5
2017-Apr-23 02:00N 60°19' E 005°09'510.4
2017-Apr-23 01:30N 60°14' E 005°10'510.3
2017-Apr-23 01:00N 60°09' E 005°11'510.2
2017-Apr-23 00:30N 60°04' E 005°10'4 8.1
2017-Apr-23 00:00N 60°00' E 005°07'0 0.0
2017-Apr-22 23:30N 60°00' E 005°07'0 0.0
2017-Apr-22 23:00N 60°00' E 005°07'0 0.0
2017-Apr-22 22:30N 60°00' E 005°07'0 0.0
2017-Apr-22 22:00N 60°00' E 005°07'0 0.0
2017-Apr-22 21:30N 60°00' E 005°07'0 0.0
2017-Apr-22 21:00N 60°00' E 005°07'0 0.0
2017-Apr-22 20:30N 60°00' E 005°07'0 0.0
2017-Apr-22 20:00N 60°00' E 005°07'2 4.7
2017-Apr-22 19:30N 60°02' E 005°10'611.1
2017-Apr-22 19:00N 60°08' E 005°11'511.1
2017-Apr-22 18:30N 60°13' E 005°10'611.1
2017-Apr-22 18:00N 60°19' E 005°08'510.2
2017-Apr-22 17:30N 60°23' E 005°12'5 9.3
2017-Apr-22 17:00N 60°28' E 005°15'4 8.8
2017-Apr-22 16:30N 60°32' E 005°19'1 2.1
2017-Apr-22 16:01N 60°31' E 005°21'0 0.0
2017-Apr-22 15:30N 60°31' E 005°21'0 0.0
2017-Apr-22 15:00N 60°31' E 005°21'1 1.5
2017-Apr-22 14:30N 60°31' E 005°23'6 5.8
2017-Apr-22 13:30N 60°34' E 005°13'510.1
2017-Apr-22 13:00N 60°37' E 005°04'510.1
2017-Apr-22 12:30N 60°39' E 004°55'510.2
2017-Apr-22 12:00N 60°43' E 004°49'510.2
2017-Apr-22 11:30N 60°48' E 004°45'4 7.2
2017-Apr-22 11:00N 60°51' E 004°50'3 6.5
2017-Apr-22 10:30N 60°52' E 004°56'0 0.0
2017-Apr-22 10:00N 60°52' E 004°56'3 5.9
2017-Apr-22 09:30N 60°52' E 004°50'1 2.5
2017-Apr-22 09:00N 60°54' E 004°50'0 0.0
2017-Apr-22 08:30N 60°54' E 004°50'0 0.0
2017-Apr-22 08:00N 60°54' E 004°50'0 0.0
2017-Apr-22 07:30N 60°54' E 004°50'3 5.6
2017-Apr-22 07:00N 60°51' E 004°48'4 7.4
2017-Apr-22 06:31N 60°48' E 004°46'5 9.3
2017-Apr-22 06:00N 60°43' E 004°49'5 9.4
2017-Apr-22 05:30N 60°39' E 004°52'5 9.2
2017-Apr-22 05:00N 60°34' E 004°55'5 9.3
2017-Apr-22 04:30N 60°30' E 004°59'5 9.1
2017-Apr-22 04:00N 60°26' E 005°03'5 9.2
2017-Apr-22 03:30N 60°23' E 005°10'5 9.3
2017-Apr-22 03:00N 60°18' E 005°08'5 9.5
2017-Apr-22 02:30N 60°14' E 005°10'5 9.2
2017-Apr-22 02:00N 60°09' E 005°11'5 9.6
2017-Apr-22 01:30N 60°04' E 005°10'5 8.9
2017-Apr-22 01:00N 59°60' E 005°13'4 9.1
2017-Apr-22 00:31N 59°56' E 005°10'3 5.6
2017-Apr-22 00:00N 59°54' E 005°06'0 0.1
2017-Apr-21 23:30N 59°54' E 005°06'0 0.0
2017-Apr-21 23:00N 59°54' E 005°06'0 0.0
2017-Apr-21 22:30N 59°54' E 005°06'0 0.0
2017-Apr-21 22:00N 59°54' E 005°06'0 0.0
2017-Apr-21 21:30N 59°54' E 005°06'0 0.0
2017-Apr-21 21:00N 59°54' E 005°06'0 0.0
2017-Apr-21 20:30N 59°54' E 005°06'0 0.0
2017-Apr-21 20:00N 59°54' E 005°06'0 0.2
2017-Apr-21 19:30N 59°54' E 005°06'2 3.0
2017-Apr-21 19:00N 59°55' E 005°08'3 5.8
2017-Apr-21 18:30N 59°53' E 005°13'4 8.7
2017-Apr-21 18:00N 59°50' E 005°18'4 8.6
2017-Apr-21 17:30N 59°46' E 005°21'4 8.6
2017-Apr-21 17:00N 59°42' E 005°24'5 9.8
2017-Apr-21 16:30N 59°38' E 005°18'5 9.4
2017-Apr-21 16:00N 59°33' E 005°14'4 8.8
2017-Apr-21 15:30N 59°29' E 005°13'4 7.9
2017-Apr-21 15:00N 59°25' E 005°14'4 8.7
2017-Apr-21 14:31N 59°22' E 005°18'8 7.8
2017-Apr-21 13:30N 59°15' E 005°26'5 9.1
2017-Apr-21 13:00N 59°11' E 005°32'4 8.8
2017-Apr-21 12:31N 59°09' E 005°39'5 9.0
2017-Apr-21 12:00N 59°08' E 005°48'2 3.5
2017-Apr-21 11:30N 59°07' E 005°51'3 6.8
2017-Apr-21 11:00N 59°04' E 005°51'5 9.7
2017-Apr-21 10:30N 58°59' E 005°48'3 5.5
2017-Apr-21 10:00N 58°57' E 005°45'0 0.0
2017-Apr-21 09:30N 58°57' E 005°45'0 0.0
2017-Apr-21 09:00N 58°57' E 005°45'0 0.0
2017-Apr-21 08:30N 58°57' E 005°45'0 0.0
2017-Apr-21 08:00N 58°57' E 005°45'0 0.0
2017-Apr-21 07:30N 58°57' E 005°45'0 0.0
2017-Apr-21 07:00N 58°57' E 005°45'0 0.0
2017-Apr-21 06:30N 58°57' E 005°45'0 0.0
2017-Apr-21 06:00N 58°57' E 005°45'0 0.0
2017-Apr-21 05:31N 58°57' E 005°45'4 7.5
2017-Apr-21 05:01N 59°00' E 005°48'4 7.9
2017-Apr-21 04:31N 59°04' E 005°45'510.4
2017-Apr-21 04:00N 59°07' E 005°36'5 9.2
2017-Apr-21 03:30N 59°10' E 005°31'510.1
2017-Apr-21 03:00N 59°15' E 005°26'4 7.9
2017-Apr-21 02:30N 59°17' E 005°20'5 9.5
2017-Apr-21 01:59N 59°22' E 005°18'4 8.9
2017-Apr-21 01:30N 59°26' E 005°14'5 9.4
2017-Apr-21 01:00N 59°31' E 005°13'5 9.4
2017-Apr-21 00:30N 59°35' E 005°16'5 9.6
2017-Apr-21 00:00N 59°39' E 005°21'4 8.6
2017-Apr-20 23:30N 59°43' E 005°23'510.4
2017-Apr-20 23:00N 59°48' E 005°19'510.1
2017-Apr-20 22:30N 59°52' E 005°14'5 9.9
2017-Apr-20 22:00N 59°57' E 005°09'4 8.0
2017-Apr-20 21:30N 60°01' E 005°07'1 1.1
2017-Apr-20 21:01N 60°00' E 005°07'0 0.0
2017-Apr-20 20:30N 60°00' E 005°07'0 0.0
2017-Apr-20 20:00N 60°00' E 005°07'0 0.0
2017-Apr-20 19:30N 60°00' E 005°07'0 0.0
2017-Apr-20 19:00N 60°00' E 005°07'0 0.0
2017-Apr-20 18:30N 60°00' E 005°07'0 0.0
2017-Apr-20 18:00N 60°00' E 005°07'0 0.0
2017-Apr-20 17:30N 60°00' E 005°07'0 0.0
2017-Apr-20 17:00N 60°00' E 005°07'0 0.0
2017-Apr-20 16:30N 60°00' E 005°07'0 0.0
2017-Apr-20 16:00N 60°00' E 005°07'0 0.0
2017-Apr-20 15:30N 60°00' E 005°07'0 0.0
2017-Apr-20 15:00N 60°00' E 005°07'0 0.0
2017-Apr-20 14:30N 60°00' E 005°07'0 0.0
2017-Apr-20 13:31N 60°00' E 005°07'0 0.0
2017-Apr-20 13:00N 60°00' E 005°07'0 0.0
2017-Apr-20 12:30N 60°00' E 005°07'0 0.0
2017-Apr-20 12:00N 60°00' E 005°07'0 0.0
2017-Apr-20 11:30N 60°00' E 005°07'0 0.0
2017-Apr-20 11:00N 60°00' E 005°07'0 0.0
2017-Apr-20 10:29N 60°00' E 005°07'0 0.0
2017-Apr-20 10:00N 60°00' E 005°07'0 0.0
2017-Apr-20 09:30N 60°00' E 005°07'0 0.0
2017-Apr-20 09:00N 60°00' E 005°07'0 0.0
2017-Apr-20 08:30N 60°00' E 005°07'0 0.0
2017-Apr-20 08:00N 60°00' E 005°07'0 0.0
2017-Apr-20 07:30N 60°00' E 005°07'0 0.0
2017-Apr-20 07:00N 60°00' E 005°07'0 0.0
2017-Apr-20 06:30N 60°00' E 005°07'0 0.0
2017-Apr-20 06:00N 60°00' E 005°07'0 0.1
2017-Apr-20 05:30N 60°00' E 005°07'3 5.0
2017-Apr-20 05:00N 59°58' E 005°05'1 1.7
2017-Apr-20 04:30N 59°57' E 005°06'1 2.0
2017-Apr-20 04:00N 59°57' E 005°07'1 1.7
2017-Apr-20 03:30N 59°57' E 005°09'1 1.1
2017-Apr-20 03:00N 59°58' E 005°10'0 0.9
2017-Apr-20 02:30N 59°57' E 005°11'1 2.8
2017-Apr-20 02:00N 59°57' E 005°08'1 1.7
2017-Apr-20 01:30N 59°57' E 005°07'2 4.5
2017-Apr-20 01:00N 59°59' E 005°06'1 2.0
2017-Apr-20 00:30N 60°00' E 005°07'0 0.0
2017-Apr-20 00:00N 60°00' E 005°07'0 0.0
2017-Apr-19 23:29N 60°00' E 005°07'0 0.0
2017-Apr-19 23:00N 60°00' E 005°07'0 0.0
2017-Apr-19 22:30N 60°00' E 005°07'0 0.0
2017-Apr-19 22:00N 60°00' E 005°07'0 0.0
2017-Apr-19 21:30N 60°00' E 005°07'0 0.0
2017-Apr-19 21:00N 60°00' E 005°07'0 0.0
2017-Apr-19 20:30N 60°00' E 005°07'0 0.0
2017-Apr-19 20:00N 60°00' E 005°07'0 0.0
2017-Apr-19 19:30N 60°00' E 005°07'0 0.0
2017-Apr-19 19:00N 60°00' E 005°07'0 0.0
2017-Apr-19 18:30N 60°00' E 005°07'0 0.0
2017-Apr-19 18:00N 60°00' E 005°07'0 0.0
2017-Apr-19 17:30N 60°00' E 005°07'1 1.0
2017-Apr-19 17:00N 60°01' E 005°08'5 9.2
2017-Apr-19 16:30N 60°05' E 005°11'1 2.7
2017-Apr-19 16:00N 60°06' E 005°13'0 0.0
2017-Apr-19 15:31N 60°06' E 005°13'0 0.0
2017-Apr-19 15:00N 60°06' E 005°13'1 2.7
2017-Apr-19 14:30N 60°06' E 005°11'9 8.4
2017-Apr-19 13:30N 60°08' E 005°28'510.0
2017-Apr-19 13:00N 60°08' E 005°37'4 7.1
2017-Apr-19 12:29N 60°11' E 005°43'0 0.0
2017-Apr-19 12:00N 60°11' E 005°43'1 1.9
2017-Apr-19 11:28N 60°10' E 005°42'1 1.8
2017-Apr-19 11:00N 60°10' E 005°43'0 0.7
2017-Apr-19 10:30N 60°09' E 005°42'510.6
2017-Apr-19 10:00N 60°07' E 005°32'510.5
2017-Apr-19 09:30N 60°06' E 005°22'510.7
2017-Apr-19 09:00N 60°01' E 005°20'5 9.7
2017-Apr-19 08:30N 59°57' E 005°27'0 0.4
2017-Apr-19 08:00N 59°57' E 005°27'0 0.0
2017-Apr-19 07:30N 59°57' E 005°27'1 1.9
2017-Apr-19 07:00N 59°58' E 005°25'5 9.1
2017-Apr-19 06:30N 59°59' E 005°17'4 8.8
2017-Apr-19 06:00N 60°01' E 005°09'2 4.5
2017-Apr-19 05:30N 60°01' E 005°05'1 1.3
2017-Apr-19 05:00N 60°01' E 005°06'1 2.1
2017-Apr-19 04:30N 60°00' E 005°07'0 0.0
2017-Apr-19 04:00N 60°00' E 005°07'0 0.0
2017-Apr-19 03:30N 60°00' E 005°07'0 0.0
2017-Apr-19 03:00N 60°00' E 005°07'0 0.0
2017-Apr-19 02:30N 60°00' E 005°07'0 0.0
2017-Apr-19 02:00N 60°00' E 005°07'0 0.0
2017-Apr-19 01:30N 60°00' E 005°07'0 0.0
2017-Apr-19 01:00N 60°00' E 005°07'0 0.0
2017-Apr-19 00:30N 60°00' E 005°07'0 0.0
2017-Apr-19 00:00N 60°00' E 005°07'0 0.0
2017-Apr-18 23:30N 60°00' E 005°07'0 0.0
2017-Apr-18 23:00N 60°00' E 005°07'0 0.0
2017-Apr-18 22:30N 60°00' E 005°07'0 0.0
2017-Apr-18 22:00N 60°00' E 005°07'0 0.0
2017-Apr-18 21:30N 60°00' E 005°07'0 0.0
2017-Apr-18 21:00N 60°00' E 005°07'0 0.0
2017-Apr-18 20:30N 60°00' E 005°07'0 0.0
2017-Apr-18 20:00N 60°00' E 005°07'0 0.0
2017-Apr-18 19:30N 60°00' E 005°07'0 0.0
2017-Apr-18 19:00N 60°00' E 005°07'0 0.0
2017-Apr-18 18:30N 60°00' E 005°07'0 0.0
2017-Apr-18 18:00N 60°00' E 005°07'0 0.0
2017-Apr-18 17:30N 60°00' E 005°07'0 0.0
2017-Apr-18 17:00N 60°00' E 005°07'0 0.0
2017-Apr-18 16:30N 60°00' E 005°07'0 0.0
2017-Apr-18 16:00N 60°00' E 005°07'0 0.0
2017-Apr-18 15:29N 60°00' E 005°07'0 0.0
2017-Apr-18 15:00N 60°00' E 005°07'0 0.0
2017-Apr-18 14:00N 60°00' E 005°07'0 0.0
2017-Apr-18 13:30N 60°00' E 005°07'0 0.0
2017-Apr-18 13:00N 60°00' E 005°07'0 0.0
2017-Apr-18 12:30N 60°00' E 005°07'0 0.0
2017-Apr-18 12:00N 60°00' E 005°07'0 0.0
2017-Apr-18 11:30N 60°00' E 005°07'0 0.0
2017-Apr-18 11:00N 60°00' E 005°07'0 0.0
2017-Apr-18 10:30N 60°00' E 005°07'0 0.0
2017-Apr-18 10:00N 60°00' E 005°07'0 0.0
2017-Apr-18 09:30N 60°00' E 005°07'0 0.0
2017-Apr-18 09:00N 60°00' E 005°07'0 0.0
2017-Apr-18 08:30N 60°00' E 005°07'0 0.0
2017-Apr-18 08:00N 60°00' E 005°07'0 0.0
2017-Apr-18 07:30N 60°00' E 005°07'0 0.0
2017-Apr-18 06:59N 60°00' E 005°07'0 0.0
2017-Apr-18 06:30N 60°00' E 005°07'0 0.0
2017-Apr-18 06:00N 60°00' E 005°07'0 0.0
2017-Apr-18 05:30N 60°00' E 005°07'0 0.0
2017-Apr-18 05:00N 60°00' E 005°07'0 0.0
2017-Apr-18 04:30N 60°00' E 005°07'0 0.0
2017-Apr-18 04:00N 60°00' E 005°07'0 0.0
2017-Apr-18 03:29N 60°00' E 005°07'0 0.0
2017-Apr-18 03:00N 60°00' E 005°07'0 0.0
2017-Apr-18 02:30N 60°00' E 005°07'0 0.0
2017-Apr-18 02:00N 60°00' E 005°07'0 0.0
2017-Apr-18 01:30N 60°00' E 005°07'0 0.0
2017-Apr-18 01:00N 60°00' E 005°07'0 0.0
2017-Apr-18 00:30N 60°00' E 005°07'0 0.0
2017-Apr-18 00:00N 60°00' E 005°07'0 0.0
2017-Apr-17 23:30N 60°00' E 005°07'0 0.0
2017-Apr-17 23:00N 60°00' E 005°07'0 0.0
2017-Apr-17 22:30N 60°00' E 005°07'0 0.0
2017-Apr-17 22:00N 60°00' E 005°07'0 0.0
2017-Apr-17 21:30N 60°00' E 005°07'0 0.0
2017-Apr-17 21:00N 60°00' E 005°07'0 0.0
2017-Apr-17 20:30N 60°00' E 005°07'0 0.0
2017-Apr-17 20:00N 60°00' E 005°07'0 0.0
2017-Apr-17 19:30N 60°00' E 005°07'0 0.0
2017-Apr-17 19:00N 60°00' E 005°07'0 0.0
2017-Apr-17 18:30N 60°00' E 005°07'0 0.0
2017-Apr-17 18:00N 60°00' E 005°07'0 0.0
2017-Apr-17 17:30N 60°00' E 005°07'3 5.9
2017-Apr-17 17:00N 60°00' E 005°13'5 9.8
2017-Apr-17 16:30N 59°59' E 005°22'510.5
2017-Apr-17 16:00N 59°55' E 005°30'510.0
2017-Apr-17 15:30N 59°52' E 005°37'510.8
2017-Apr-17 15:00N 59°55' E 005°45'3 2.8
2017-Apr-17 13:59N 59°57' E 005°50'0 0.0
2017-Apr-17 13:31N 59°57' E 005°50'3 5.1
2017-Apr-17 13:01N 59°59' E 005°54'510.0
2017-Apr-17 12:30N 60°02' E 006°01'0 0.7
2017-Apr-17 12:00N 60°03' E 006°01'4 8.7
2017-Apr-17 11:30N 60°06' E 006°06'3 6.0
2017-Apr-17 11:00N 60°06' E 006°12'1 2.0
2017-Apr-17 10:29N 60°06' E 006°10'510.1
2017-Apr-17 10:00N 60°04' E 006°02'510.4
2017-Apr-17 09:30N 60°00' E 005°54'5 9.8
2017-Apr-17 09:01N 59°58' E 005°46'5 9.1
2017-Apr-17 08:31N 60°03' E 005°42'4 8.2
2017-Apr-17 08:00N 60°06' E 005°37'510.3
2017-Apr-17 07:30N 60°06' E 005°26'5 9.4
2017-Apr-17 07:00N 60°08' E 005°18'510.0
2017-Apr-17 06:30N 60°12' E 005°12'510.1
2017-Apr-17 06:00N 60°17' E 005°09'510.2
2017-Apr-17 05:30N 60°22' E 005°10'5 9.9
2017-Apr-17 05:00N 60°26' E 005°03'611.0
2017-Apr-17 04:30N 60°31' E 004°58'510.9
2017-Apr-17 04:00N 60°36' E 004°54'510.5
2017-Apr-17 03:30N 60°41' E 004°51'510.5
2017-Apr-17 02:59N 60°46' E 004°47'5 9.6
2017-Apr-17 02:30N 60°50' E 004°46'3 6.7
2017-Apr-17 02:00N 60°53' E 004°50'1 1.1
2017-Apr-17 01:30N 60°54' E 004°50'0 0.0
2017-Apr-17 01:00N 60°54' E 004°50'0 0.0
2017-Apr-17 00:30N 60°54' E 004°50'0 0.0
2017-Apr-17 00:00N 60°54' E 004°50'0 0.0
2017-Apr-16 23:30N 60°54' E 004°50'2 4.0
2017-Apr-16 23:00N 60°52' E 004°51'4 8.7
2017-Apr-16 22:30N 60°49' E 004°44'5 9.6
2017-Apr-16 22:00N 60°44' E 004°48'5 9.7
2017-Apr-16 21:30N 60°40' E 004°52'5 9.6
2017-Apr-16 20:59N 60°37' E 005°01'5 9.9
2017-Apr-16 20:30N 60°35' E 005°10'510.1
2017-Apr-16 20:00N 60°32' E 005°18'4 8.7
2017-Apr-16 19:30N 60°30' E 005°26'0 0.0
2017-Apr-16 19:00N 60°30' E 005°26'0 0.0
2017-Apr-16 18:30N 60°30' E 005°26'0 0.0
2017-Apr-16 17:59N 60°30' E 005°26'0 0.0
2017-Apr-16 17:30N 60°30' E 005°26'0 0.0
2017-Apr-16 16:59N 60°30' E 005°26'3 6.7
2017-Apr-16 16:30N 60°31' E 005°20'4 8.0
2017-Apr-16 16:00N 60°28' E 005°15'4 8.7
2017-Apr-16 15:30N 60°24' E 005°13'4 8.7
2017-Apr-16 15:00N 60°20' E 005°10'5 9.8
2017-Apr-16 14:29N 60°15' E 005°09'9 9.6
2017-Apr-16 13:30N 60°07' E 005°18'510.2
2017-Apr-16 13:00N 60°02' E 005°20'510.2
2017-Apr-16 12:30N 59°57' E 005°25'1 1.3
2017-Apr-16 12:00N 59°57' E 005°26'4 7.8
2017-Apr-16 11:30N 59°59' E 005°20'5 9.3
2017-Apr-16 11:00N 60°01' E 005°12'3 5.2
2017-Apr-16 10:30N 60°00' E 005°07'0 0.0
2017-Apr-16 10:00N 60°00' E 005°07'0 0.0
2017-Apr-16 09:30N 60°00' E 005°07'  

Dump ship's entire track history